BAW464 LFPO-EGLL
Flight info
| Callsign | BAW464 |
|---|---|
| Flight time | 0h 49m |
| Altitude | 24000 |
| Route | OPALE DCT KESAX DCT DIMAL DCT ALESO |
| Aircraft | A320/M-SDE3FGIJ1KRWXY/S |
Departure
| Time | 2026-05-07 14:32 |
|---|---|
| Airport | Paris-Orly Airport (LFPO) |
Arrival
| Time | 2026-05-07 15:21 |
|---|---|
| Airport | London Heathrow Airport (EGLL) |
| Time | Latitude | Longitude | Altitude | Speed | Heading |
|---|---|---|---|---|---|
| 2026-05-07 13:41 | 48.72754 | 2.35787 | 300 ft | 0 kts | 173° |
| 2026-05-07 14:23 | 48.72766 | 2.35784 | 302 ft | 3 kts | 174° |
| 2026-05-07 14:23 | 48.72791 | 2.35787 | 300 ft | 4 kts | 219° |
| 2026-05-07 14:23 | 48.72803 | 2.35817 | 302 ft | 2 kts | 256° |
| 2026-05-07 14:23 | 48.72805 | 2.35826 | 302 ft | 0 kts | 256° |
| 2026-05-07 14:26 | 48.72800 | 2.35797 | 296 ft | 5 kts | 256° |
| 2026-05-07 14:27 | 48.72788 | 2.35723 | 300 ft | 9 kts | 256° |
| 2026-05-07 14:27 | 48.72769 | 2.35613 | 298 ft | 9 kts | 255° |
| 2026-05-07 14:27 | 48.72749 | 2.35531 | 297 ft | 10 kts | 238° |
| 2026-05-07 14:27 | 48.72678 | 2.35507 | 300 ft | 13 kts | 167° |
| 2026-05-07 14:28 | 48.72577 | 2.35547 | 298 ft | 17 kts | 165° |
| 2026-05-07 14:28 | 48.72469 | 2.35593 | 299 ft | 14 kts | 164° |
| 2026-05-07 14:28 | 48.72378 | 2.35632 | 297 ft | 13 kts | 165° |
| 2026-05-07 14:28 | 48.72278 | 2.35611 | 298 ft | 15 kts | 198° |
| 2026-05-07 14:29 | 48.72192 | 2.35612 | 298 ft | 13 kts | 166° |
| 2026-05-07 14:29 | 48.72103 | 2.35655 | 300 ft | 10 kts | 156° |
| 2026-05-07 14:29 | 48.72081 | 2.35672 | 299 ft | 0 kts | 150° |
| 2026-05-07 14:29 | 48.72081 | 2.35673 | 299 ft | 0 kts | 150° |
| 2026-05-07 14:30 | 48.72062 | 2.35689 | 298 ft | 5 kts | 147° |
| 2026-05-07 14:30 | 48.72030 | 2.35749 | 297 ft | 9 kts | 122° |
| 2026-05-07 14:30 | 48.71990 | 2.35854 | 299 ft | 13 kts | 120° |
| 2026-05-07 14:30 | 48.71967 | 2.35969 | 297 ft | 9 kts | 92° |
| 2026-05-07 14:31 | 48.71981 | 2.36078 | 297 ft | 23 kts | 76° |
| 2026-05-07 14:31 | 48.72097 | 2.36703 | 300 ft | 97 kts | 73° |
| 2026-05-07 14:31 | 48.72337 | 2.37972 | 301 ft | 151 kts | 73° |
| 2026-05-07 14:31 | 48.72651 | 2.39562 | 726 ft | 161 kts | 72° |
| 2026-05-07 14:32 | 48.72945 | 2.41202 | 1430 ft | 161 kts | 73° |
| 2026-05-07 14:32 | 48.73256 | 2.42917 | 1886 ft | 180 kts | 73° |
| 2026-05-07 14:32 | 48.73613 | 2.44863 | 2215 ft | 205 kts | 73° |
| 2026-05-07 14:32 | 48.74005 | 2.47076 | 2657 ft | 230 kts | 79° |
| 2026-05-07 14:33 | 48.74150 | 2.49624 | 3184 ft | 255 kts | 87° |
| 2026-05-07 14:33 | 48.74222 | 2.52355 | 4073 ft | 263 kts | 87° |
| 2026-05-07 14:33 | 48.74287 | 2.55138 | 5097 ft | 267 kts | 91° |
| 2026-05-07 14:33 | 48.73894 | 2.57900 | 6067 ft | 272 kts | 115° |
| 2026-05-07 14:34 | 48.72769 | 2.60194 | 7019 ft | 276 kts | 141° |
| 2026-05-07 14:34 | 48.71072 | 2.61524 | 7956 ft | 278 kts | 168° |
| 2026-05-07 14:34 | 48.69146 | 2.61565 | 8930 ft | 280 kts | 193° |
| 2026-05-07 14:34 | 48.67383 | 2.60326 | 9851 ft | 284 kts | 219° |
| 2026-05-07 14:35 | 48.66120 | 2.57994 | 10470 ft | 298 kts | 244° |
| 2026-05-07 14:35 | 48.65686 | 2.54826 | 10758 ft | 323 kts | 272° |
| 2026-05-07 14:35 | 48.65893 | 2.51369 | 11303 ft | 335 kts | 275° |
| 2026-05-07 14:35 | 48.66107 | 2.47845 | 12091 ft | 338 kts | 274° |
| 2026-05-07 14:36 | 48.66308 | 2.44283 | 12926 ft | 341 kts | 273° |
| 2026-05-07 14:36 | 48.66256 | 2.40694 | 13761 ft | 343 kts | 262° |
| 2026-05-07 14:36 | 48.65710 | 2.37175 | 14556 ft | 346 kts | 252° |
| 2026-05-07 14:36 | 48.65150 | 2.33629 | 15284 ft | 349 kts | 263° |
| 2026-05-07 14:37 | 48.65172 | 2.29949 | 16009 ft | 353 kts | 277° |
| 2026-05-07 14:37 | 48.66925 | 2.22955 | 17461 ft | 363 kts | 298° |
| 2026-05-07 14:37 | 48.68168 | 2.19616 | 18201 ft | 366 kts | 297° |
| 2026-05-07 14:38 | 48.69410 | 2.16232 | 18871 ft | 370 kts | 297° |
| 2026-05-07 14:38 | 48.70661 | 2.12806 | 19531 ft | 373 kts | 297° |
| 2026-05-07 14:38 | 48.71960 | 2.09380 | 20211 ft | 378 kts | 303° |
| 2026-05-07 14:38 | 48.73698 | 2.06368 | 20885 ft | 385 kts | 317° |
| 2026-05-07 14:39 | 48.75942 | 2.04100 | 21550 ft | 392 kts | 332° |
| 2026-05-07 14:39 | 48.78547 | 2.02791 | 22208 ft | 400 kts | 348° |
| 2026-05-07 14:39 | 48.81345 | 2.02608 | 22848 ft | 407 kts | 3° |
| 2026-05-07 14:39 | 48.84177 | 2.03156 | 23502 ft | 412 kts | 6° |
| 2026-05-07 14:40 | 48.87029 | 2.03752 | 23940 ft | 416 kts | 6° |
| 2026-05-07 14:40 | 48.89901 | 2.04340 | 24039 ft | 417 kts | 6° |
| 2026-05-07 14:40 | 48.92777 | 2.04930 | 24051 ft | 417 kts | 6° |
| 2026-05-07 14:40 | 48.95657 | 2.05517 | 24058 ft | 417 kts | 6° |
| 2026-05-07 14:41 | 48.98529 | 2.06104 | 24059 ft | 417 kts | 6° |
| 2026-05-07 14:41 | 49.01404 | 2.06689 | 24054 ft | 417 kts | 6° |
| 2026-05-07 14:41 | 49.04280 | 2.07281 | 24058 ft | 417 kts | 6° |
| 2026-05-07 14:41 | 49.07155 | 2.07859 | 24065 ft | 417 kts | 6° |
| 2026-05-07 14:42 | 49.10027 | 2.08432 | 24053 ft | 417 kts | 6° |
| 2026-05-07 14:42 | 49.12866 | 2.09006 | 24059 ft | 417 kts | 6° |
| 2026-05-07 14:42 | 49.15779 | 2.09599 | 24053 ft | 417 kts | 6° |
| 2026-05-07 14:42 | 49.18615 | 2.10184 | 24061 ft | 417 kts | 6° |
| 2026-05-07 14:43 | 49.21524 | 2.10782 | 24061 ft | 417 kts | 6° |
| 2026-05-07 14:43 | 49.24405 | 2.11365 | 24074 ft | 418 kts | 6° |
| 2026-05-07 14:43 | 49.27249 | 2.11948 | 24070 ft | 417 kts | 6° |
| 2026-05-07 14:43 | 49.30128 | 2.12538 | 24078 ft | 417 kts | 6° |
| 2026-05-07 14:44 | 49.33004 | 2.13131 | 24073 ft | 418 kts | 6° |
| 2026-05-07 14:44 | 49.35885 | 2.13728 | 24077 ft | 417 kts | 6° |
| 2026-05-07 14:44 | 49.38763 | 2.14315 | 24075 ft | 417 kts | 6° |
| 2026-05-07 14:44 | 49.41639 | 2.14732 | 24071 ft | 415 kts | 358° |
| 2026-05-07 14:45 | 49.44509 | 2.14394 | 24061 ft | 412 kts | 348° |
| 2026-05-07 14:45 | 49.46390 | 2.13708 | 24065 ft | 411 kts | 340° |
| 2026-05-07 14:45 | 49.49080 | 2.12244 | 24066 ft | 410 kts | 337° |
| 2026-05-07 14:45 | 49.51742 | 2.10684 | 24078 ft | 410 kts | 337° |
| 2026-05-07 14:46 | 49.54412 | 2.09133 | 24074 ft | 410 kts | 338° |
| 2026-05-07 14:46 | 49.57048 | 2.07620 | 24080 ft | 410 kts | 338° |
| 2026-05-07 14:46 | 49.59720 | 2.06083 | 24084 ft | 410 kts | 338° |
| 2026-05-07 14:46 | 49.62393 | 2.04538 | 24085 ft | 410 kts | 337° |
| 2026-05-07 14:47 | 49.65061 | 2.02988 | 24081 ft | 410 kts | 337° |
| 2026-05-07 14:47 | 49.67730 | 2.01446 | 24082 ft | 409 kts | 337° |
| 2026-05-07 14:47 | 49.70399 | 1.99901 | 24085 ft | 409 kts | 337° |
| 2026-05-07 14:47 | 49.73062 | 1.98356 | 24094 ft | 409 kts | 337° |
| 2026-05-07 14:48 | 49.75725 | 1.96811 | 24090 ft | 409 kts | 337° |
| 2026-05-07 14:48 | 49.78395 | 1.95264 | 24093 ft | 409 kts | 337° |
| 2026-05-07 14:48 | 49.81059 | 1.93711 | 24093 ft | 409 kts | 337° |
| 2026-05-07 14:48 | 49.83722 | 1.92153 | 24089 ft | 409 kts | 337° |
| 2026-05-07 14:49 | 49.86388 | 1.90608 | 24087 ft | 409 kts | 337° |
| 2026-05-07 14:49 | 49.89025 | 1.88956 | 24086 ft | 408 kts | 332° |
| 2026-05-07 14:49 | 49.91443 | 1.86687 | 24084 ft | 405 kts | 321° |
| 2026-05-07 14:49 | 49.93660 | 1.84002 | 24084 ft | 405 kts | 319° |
| 2026-05-07 14:50 | 49.95867 | 1.81285 | 24098 ft | 405 kts | 320° |
| 2026-05-07 14:50 | 49.98070 | 1.78559 | 24096 ft | 405 kts | 319° |
| 2026-05-07 14:50 | 50.00274 | 1.75838 | 24098 ft | 405 kts | 319° |
| 2026-05-07 14:50 | 50.02477 | 1.73114 | 24097 ft | 405 kts | 319° |
| 2026-05-07 14:51 | 50.04677 | 1.70386 | 24090 ft | 404 kts | 319° |
| 2026-05-07 14:51 | 50.06936 | 1.67766 | 24090 ft | 406 kts | 326° |
| 2026-05-07 14:51 | 50.09431 | 1.65686 | 24095 ft | 408 kts | 333° |
| 2026-05-07 14:51 | 50.12007 | 1.63834 | 24094 ft | 408 kts | 333° |
| 2026-05-07 14:52 | 50.14581 | 1.61978 | 24094 ft | 408 kts | 333° |
| 2026-05-07 14:52 | 50.17158 | 1.60115 | 24096 ft | 408 kts | 333° |
| 2026-05-07 14:52 | 50.19730 | 1.58247 | 24101 ft | 408 kts | 333° |
| 2026-05-07 14:52 | 50.22298 | 1.56383 | 24098 ft | 408 kts | 333° |
| 2026-05-07 14:53 | 50.24871 | 1.54513 | 24102 ft | 407 kts | 333° |
| 2026-05-07 14:53 | 50.27435 | 1.52633 | 24101 ft | 407 kts | 333° |
| 2026-05-07 14:53 | 50.30004 | 1.50759 | 24098 ft | 407 kts | 333° |
| 2026-05-07 14:53 | 50.32570 | 1.48890 | 24100 ft | 407 kts | 333° |
| 2026-05-07 14:54 | 50.35134 | 1.47004 | 24097 ft | 407 kts | 333° |
| 2026-05-07 14:54 | 50.37700 | 1.45123 | 24098 ft | 407 kts | 333° |
| 2026-05-07 14:54 | 50.40267 | 1.43254 | 24097 ft | 407 kts | 333° |
| 2026-05-07 14:54 | 50.42830 | 1.41369 | 24103 ft | 407 kts | 332° |
| 2026-05-07 14:55 | 50.45391 | 1.39475 | 24100 ft | 407 kts | 332° |
| 2026-05-07 14:55 | 50.47916 | 1.37472 | 24097 ft | 405 kts | 326° |
| 2026-05-07 14:55 | 50.50191 | 1.34887 | 24098 ft | 403 kts | 316° |
| 2026-05-07 14:55 | 50.52159 | 1.31781 | 24099 ft | 401 kts | 310° |
| 2026-05-07 14:56 | 50.54036 | 1.28551 | 24096 ft | 401 kts | 310° |
| 2026-05-07 14:56 | 50.55929 | 1.25321 | 24095 ft | 401 kts | 310° |
| 2026-05-07 14:56 | 50.57826 | 1.22098 | 24095 ft | 401 kts | 311° |
| 2026-05-07 14:56 | 50.59792 | 1.18982 | 24092 ft | 402 kts | 313° |
| 2026-05-07 14:57 | 50.61781 | 1.15884 | 24091 ft | 402 kts | 313° |
| 2026-05-07 14:57 | 50.63758 | 1.12774 | 24091 ft | 402 kts | 313° |
| 2026-05-07 14:57 | 50.65732 | 1.09663 | 24102 ft | 402 kts | 313° |
| 2026-05-07 14:57 | 50.67062 | 1.07556 | 24100 ft | 402 kts | 313° |
| 2026-05-07 14:58 | 50.69028 | 1.04434 | 24099 ft | 402 kts | 313° |
| 2026-05-07 14:58 | 50.71000 | 1.01309 | 24097 ft | 402 kts | 313° |
| 2026-05-07 14:58 | 50.72969 | 0.98187 | 24096 ft | 402 kts | 313° |
| 2026-05-07 14:58 | 50.74918 | 0.95085 | 23940 ft | 393 kts | 313° |
| 2026-05-07 14:59 | 50.76843 | 0.92014 | 23295 ft | 394 kts | 313° |
| 2026-05-07 14:59 | 50.78763 | 0.88960 | 22794 ft | 389 kts | 313° |
| 2026-05-07 14:59 | 50.80657 | 0.85937 | 22323 ft | 385 kts | 313° |
| 2026-05-07 14:59 | 50.82540 | 0.82933 | 21844 ft | 382 kts | 313° |
| 2026-05-07 15:00 | 50.84401 | 0.79954 | 21348 ft | 379 kts | 312° |
| 2026-05-07 15:00 | 50.86243 | 0.76993 | 20866 ft | 376 kts | 313° |
| 2026-05-07 15:00 | 50.88073 | 0.74061 | 20398 ft | 373 kts | 313° |
| 2026-05-07 15:00 | 50.89862 | 0.71182 | 19903 ft | 370 kts | 312° |
| 2026-05-07 15:01 | 50.91659 | 0.68286 | 19414 ft | 367 kts | 313° |
| 2026-05-07 15:01 | 50.93440 | 0.65422 | 18926 ft | 363 kts | 313° |
| 2026-05-07 15:01 | 50.95206 | 0.62578 | 18441 ft | 360 kts | 313° |
| 2026-05-07 15:01 | 50.96956 | 0.59759 | 17914 ft | 357 kts | 313° |
| 2026-05-07 15:02 | 50.98694 | 0.56950 | 17357 ft | 355 kts | 313° |
| 2026-05-07 15:02 | 51.00413 | 0.54165 | 16814 ft | 353 kts | 313° |
| 2026-05-07 15:02 | 51.02131 | 0.51390 | 16267 ft | 351 kts | 313° |
| 2026-05-07 15:02 | 51.03832 | 0.48628 | 15726 ft | 349 kts | 313° |
| 2026-05-07 15:03 | 51.05525 | 0.45876 | 15193 ft | 348 kts | 313° |
| 2026-05-07 15:03 | 51.07214 | 0.43134 | 14653 ft | 347 kts | 314° |
| 2026-05-07 15:03 | 51.08959 | 0.40485 | 14130 ft | 346 kts | 315° |
| 2026-05-07 15:03 | 51.10707 | 0.37856 | 13603 ft | 346 kts | 315° |
| 2026-05-07 15:04 | 51.12445 | 0.35218 | 13042 ft | 345 kts | 315° |
| 2026-05-07 15:04 | 51.14168 | 0.32584 | 12536 ft | 342 kts | 314° |
| 2026-05-07 15:04 | 51.15868 | 0.29970 | 12020 ft | 336 kts | 315° |
| 2026-05-07 15:04 | 51.17517 | 0.27444 | 11533 ft | 321 kts | 315° |
| 2026-05-07 15:05 | 51.19096 | 0.25031 | 11075 ft | 308 kts | 315° |
| 2026-05-07 15:05 | 51.20615 | 0.22703 | 10637 ft | 298 kts | 314° |
| 2026-05-07 15:05 | 51.22110 | 0.20404 | 10237 ft | 300 kts | 314° |
| 2026-05-07 15:05 | 51.23578 | 0.18149 | 9916 ft | 298 kts | 314° |
| 2026-05-07 15:06 | 51.25094 | 0.15819 | 9501 ft | 293 kts | 314° |
| 2026-05-07 15:06 | 51.26557 | 0.13570 | 8865 ft | 291 kts | 314° |
| 2026-05-07 15:06 | 51.28009 | 0.11318 | 8465 ft | 291 kts | 314° |
| 2026-05-07 15:06 | 51.29451 | 0.09096 | 8024 ft | 283 kts | 315° |
| 2026-05-07 15:07 | 51.30830 | 0.06972 | 7623 ft | 272 kts | 315° |
| 2026-05-07 15:07 | 51.32132 | 0.04820 | 7243 ft | 262 kts | 306° |
| 2026-05-07 15:07 | 51.32957 | 0.02434 | 7126 ft | 246 kts | 289° |
| 2026-05-07 15:07 | 51.33325 | -0.00199 | 7072 ft | 243 kts | 276° |
| 2026-05-07 15:08 | 51.33491 | -0.02864 | 7052 ft | 241 kts | 274° |
| 2026-05-07 15:08 | 51.33646 | -0.05528 | 7053 ft | 241 kts | 274° |
| 2026-05-07 15:08 | 51.33803 | -0.08196 | 7056 ft | 241 kts | 274° |
| 2026-05-07 15:08 | 51.33965 | -0.10856 | 7048 ft | 240 kts | 274° |
| 2026-05-07 15:09 | 51.34125 | -0.13509 | 7049 ft | 240 kts | 274° |
| 2026-05-07 15:09 | 51.34283 | -0.16174 | 7050 ft | 240 kts | 274° |
| 2026-05-07 15:09 | 51.34443 | -0.18823 | 7051 ft | 239 kts | 274° |
| 2026-05-07 15:09 | 51.34600 | -0.21464 | 7054 ft | 240 kts | 274° |
| 2026-05-07 15:10 | 51.34757 | -0.24122 | 7053 ft | 240 kts | 274° |
| 2026-05-07 15:10 | 51.34910 | -0.26777 | 7053 ft | 240 kts | 274° |
| 2026-05-07 15:10 | 51.35061 | -0.29428 | 7053 ft | 240 kts | 274° |
| 2026-05-07 15:10 | 51.35217 | -0.32092 | 7055 ft | 240 kts | 274° |
| 2026-05-07 15:11 | 51.35372 | -0.34718 | 7055 ft | 241 kts | 274° |
| 2026-05-07 15:11 | 51.35531 | -0.37415 | 7055 ft | 240 kts | 274° |
| 2026-05-07 15:11 | 51.35684 | -0.40042 | 7055 ft | 240 kts | 274° |
| 2026-05-07 15:11 | 51.35835 | -0.42688 | 7058 ft | 240 kts | 274° |
| 2026-05-07 15:12 | 51.35976 | -0.45162 | 7055 ft | 240 kts | 274° |
| 2026-05-07 15:12 | 51.36128 | -0.47861 | 7056 ft | 240 kts | 274° |
| 2026-05-07 15:12 | 51.36274 | -0.50476 | 7054 ft | 240 kts | 274° |
| 2026-05-07 15:12 | 51.36420 | -0.53058 | 7056 ft | 240 kts | 274° |
| 2026-05-07 15:13 | 51.36564 | -0.55718 | 7054 ft | 240 kts | 274° |
| 2026-05-07 15:13 | 51.36713 | -0.58375 | 7056 ft | 240 kts | 274° |
| 2026-05-07 15:13 | 51.36862 | -0.61006 | 7047 ft | 234 kts | 274° |
| 2026-05-07 15:13 | 51.37009 | -0.63527 | 7044 ft | 222 kts | 274° |
| 2026-05-07 15:14 | 51.37136 | -0.65969 | 7031 ft | 219 kts | 270° |
| 2026-05-07 15:14 | 51.37123 | -0.68204 | 6768 ft | 221 kts | 267° |
| 2026-05-07 15:14 | 51.37086 | -0.70655 | 6471 ft | 221 kts | 268° |
| 2026-05-07 15:14 | 51.37059 | -0.73108 | 6167 ft | 220 kts | 269° |
| 2026-05-07 15:15 | 51.37310 | -0.75504 | 5867 ft | 219 kts | 293° |
| 2026-05-07 15:15 | 51.38194 | -0.77466 | 5584 ft | 220 kts | 320° |
| 2026-05-07 15:15 | 51.39523 | -0.78574 | 5402 ft | 211 kts | 346° |
| 2026-05-07 15:15 | 51.40936 | -0.78807 | 5185 ft | 202 kts | 357° |
| 2026-05-07 15:16 | 51.42338 | -0.78863 | 4917 ft | 200 kts | 357° |
| 2026-05-07 15:16 | 51.43713 | -0.78720 | 4607 ft | 200 kts | 19° |
| 2026-05-07 15:16 | 51.44934 | -0.77688 | 4267 ft | 199 kts | 30° |
| 2026-05-07 15:16 | 51.46091 | -0.76487 | 3931 ft | 198 kts | 40° |
| 2026-05-07 15:17 | 51.46962 | -0.74793 | 3615 ft | 197 kts | 60° |
| 2026-05-07 15:17 | 51.47462 | -0.72757 | 3298 ft | 195 kts | 78° |
| 2026-05-07 15:17 | 51.47631 | -0.70593 | 2905 ft | 197 kts | 89° |
| 2026-05-07 15:17 | 51.47647 | -0.68404 | 2582 ft | 195 kts | 90° |
| 2026-05-07 15:18 | 51.47662 | -0.66245 | 2304 ft | 192 kts | 91° |
| 2026-05-07 15:18 | 51.47674 | -0.64126 | 2043 ft | 188 kts | 91° |
| 2026-05-07 15:18 | 51.47685 | -0.62062 | 1780 ft | 180 kts | 90° |
| 2026-05-07 15:18 | 51.47696 | -0.60119 | 1551 ft | 171 kts | 90° |
| 2026-05-07 15:19 | 51.47705 | -0.58234 | 1329 ft | 167 kts | 90° |
| 2026-05-07 15:19 | 51.47714 | -0.56378 | 1102 ft | 162 kts | 91° |
| 2026-05-07 15:19 | 51.47722 | -0.54624 | 889 ft | 150 kts | 90° |
| 2026-05-07 15:19 | 51.47729 | -0.53025 | 681 ft | 138 kts | 90° |
| 2026-05-07 15:20 | 51.47736 | -0.51516 | 490 ft | 133 kts | 89° |
| 2026-05-07 15:20 | 51.47741 | -0.50049 | 319 ft | 130 kts | 89° |
| 2026-05-07 15:20 | 51.47745 | -0.48608 | 118 ft | 129 kts | 90° |
| 2026-05-07 15:20 | 51.47755 | -0.47371 | 89 ft | 77 kts | 89° |
| 2026-05-07 15:21 | 51.47759 | -0.46799 | 89 ft | 41 kts | 90° |
| 2026-05-07 15:21 | 51.47758 | -0.46360 | 91 ft | 28 kts | 92° |
| 2026-05-07 15:21 | 51.47725 | -0.46180 | 88 ft | 18 kts | 122° |
| 2026-05-07 15:21 | 51.47665 | -0.46096 | 88 ft | 10 kts | 145° |
| 2026-05-07 15:22 | 51.47618 | -0.46089 | 86 ft | 7 kts | 201° |
| 2026-05-07 15:22 | 51.47594 | -0.46171 | 89 ft | 10 kts | 265° |
| 2026-05-07 15:22 | 51.47594 | -0.46308 | 86 ft | 14 kts | 270° |
| 2026-05-07 15:22 | 51.47595 | -0.46488 | 89 ft | 18 kts | 270° |
| 2026-05-07 15:23 | 51.47595 | -0.46708 | 88 ft | 20 kts | 268° |
| 2026-05-07 15:23 | 51.47584 | -0.46886 | 86 ft | 16 kts | 262° |
| 2026-05-07 15:23 | 51.47582 | -0.47082 | 88 ft | 19 kts | 270° |
| 2026-05-07 15:23 | 51.47583 | -0.47319 | 90 ft | 23 kts | 270° |
| 2026-05-07 15:24 | 51.47581 | -0.47568 | 90 ft | 20 kts | 269° |
| 2026-05-07 15:24 | 51.47580 | -0.47815 | 88 ft | 24 kts | 270° |
| 2026-05-07 15:24 | 51.47580 | -0.48094 | 88 ft | 24 kts | 270° |
| 2026-05-07 15:24 | 51.47580 | -0.48324 | 88 ft | 19 kts | 269° |
| 2026-05-07 15:25 | 51.47549 | -0.48467 | 88 ft | 13 kts | 206° |
| 2026-05-07 15:25 | 51.47443 | -0.48476 | 86 ft | 17 kts | 180° |
| 2026-05-07 15:25 | 51.47309 | -0.48475 | 86 ft | 21 kts | 179° |
| 2026-05-07 15:25 | 51.47159 | -0.48473 | 86 ft | 21 kts | 179° |
| 2026-05-07 15:26 | 51.47041 | -0.48472 | 86 ft | 14 kts | 180° |
| 2026-05-07 15:26 | 51.46940 | -0.48471 | 88 ft | 11 kts | 180° |
| 2026-05-07 15:26 | 51.46880 | -0.48522 | 86 ft | 12 kts | 252° |
| 2026-05-07 15:26 | 51.46877 | -0.48636 | 86 ft | 10 kts | 269° |
| 2026-05-07 15:27 | 51.46876 | -0.48733 | 86 ft | 7 kts | 269° |
| 2026-05-07 15:27 | 51.46899 | -0.48783 | 88 ft | 4 kts | 346° |
| 2026-05-07 15:27 | 51.46919 | -0.48786 | 86 ft | 3 kts | 356° |
| 2026-05-07 15:27 | 51.46930 | -0.48787 | 88 ft | 1 kts | 358° |